Time;durP1;ratioP1;P1;durP2;ratioP2;P2;SDS_P1;SDS_P2;PMS_P1;PMS_P2;Temp;Humidity;BMP_temperature;BMP_pressure;BME280_temperature;BME280_humidity;BME280_pressure;Samples;Min_cycle;Max_cycle;Signal;HPM_P1;HPM_P2
2022/10/05 00:01:30;;;;;;;31.45;13.50;;;14.10;99.90;;;;;;5015795;28;20117;-67
2022/10/05 00:04:14;;;;;;;27.45;12.98;;;14.10;99.90;;;;;;5015135;28;20109;-67
2022/10/05 00:07:02;;;;;;;;;;;14.10;99.90;;;;;;5017105;28;20092;-67
2022/10/05 00:09:30;;;;;;;29.20;14.32;;;14.10;99.90;;;;;;5010425;28;20362;-69
2022/10/05 00:11:56;;;;;;;36.13;13.30;;;14.00;99.90;;;;;;5016792;28;20363;-70
2022/10/05 00:14:29;;;;;;;26.25;12.75;;;14.10;99.90;;;;;;5015681;28;20026;-69
2022/10/05 00:16:55;;;;;;;27.35;12.50;;;14.10;99.90;;;;;;5016765;28;20021;-69
2022/10/05 00:19:32;;;;;;;25.08;13.20;;;14.10;99.90;;;;;;5015981;28;20482;-69
2022/10/05 00:22:01;;;;;;;32.25;13.73;;;14.10;99.90;;;;;;5015602;28;21054;-69
2022/10/05 00:24:27;;;;;;;31.60;12.38;;;14.10;99.90;;;;;;5016224;28;20022;-69
2022/10/05 00:26:53;;;;;;;31.42;13.10;;;14.00;99.90;;;;;;5015988;28;20030;-69
2022/10/05 00:29:22;;;;;;;25.27;13.35;;;14.10;99.90;;;;;;5015756;28;20025;-69
2022/10/05 00:31:49;;;;;;;25.90;13.23;;;14.10;99.90;;;;;;5015837;28;20112;-69
2022/10/05 00:34:15;;;;;;;34.75;13.43;;;14.10;99.90;;;;;;5015781;28;20034;-69
2022/10/05 00:36:42;;;;;;;25.75;13.35;;;14.10;99.90;;;;;;5015433;28;20036;-69
2022/10/05 00:39:07;;;;;;;29.63;14.05;;;14.00;99.90;;;;;;5015953;28;20068;-69
2022/10/05 00:41:53;;;;;;;35.85;13.88;;;13.90;99.90;;;;;;5015753;28;20065;-69
2022/10/05 00:44:24;;;;;;;27.70;13.50;;;13.90;99.90;;;;;;5008409;28;20033;-67
2022/10/05 00:46:55;;;;;;;29.25;14.90;;;13.90;99.90;;;;;;5015551;28;20029;-69
2022/10/05 00:49:26;;;;;;;27.73;13.50;;;14.00;99.90;;;;;;5012991;28;20102;-69
2022/10/05 00:52:27;;;;;;;25.10;13.32;;;14.00;99.90;;;;;;5015049;28;20026;-69
2022/10/05 00:55:11;;;;;;;27.92;13.52;;;14.10;99.90;;;;;;5002480;28;20042;-69
2022/10/05 00:57:54;;;;;;;;;;;14.10;99.90;;;;;;4996242;28;20036;-69
2022/10/05 01:00:24;;;;;;;27.95;14.30;;;14.00;99.90;;;;;;4995200;28;19949;-69
2022/10/05 01:03:03;;;;;;;25.75;14.07;;;14.00;99.90;;;;;;5005608;28;20473;-69
2022/10/05 01:05:38;;;;;;;35.58;14.90;;;14.00;99.90;;;;;;5015196;28;20536;-69
2022/10/05 01:08:22;;;;;;;28.52;15.25;;;14.10;99.90;;;;;;5015067;28;20030;-68
2022/10/05 01:10:54;;;;;;;;;;;14.00;99.90;;;;;;5014934;28;20555;-68
2022/10/05 01:13:32;;;;;;;37.17;14.13;;;14.10;99.90;;;;;;5013858;28;19905;-68
2022/10/05 01:16:26;;;;;;;32.50;15.77;;;14.00;99.90;;;;;;5014405;28;20037;-68
2022/10/05 01:18:54;;;;;;;32.40;14.52;;;14.10;99.90;;;;;;4982123;28;20377;-69
2022/10/05 01:21:29;;;;;;;33.40;13.50;;;14.00;99.90;;;;;;5014484;28;20033;-69
2022/10/05 01:24:16;;;;;;;26.08;14.65;;;14.10;99.90;;;;;;5014994;28;20415;-69
2022/10/05 01:27:10;;;;;;;27.25;13.13;;;14.20;99.90;;;;;;5015169;28;20073;-69
2022/10/05 01:29:42;;;;;;;30.80;14.73;;;14.30;99.90;;;;;;5014574;28;20390;-69
2022/10/05 01:32:26;;;;;;;26.58;13.98;;;14.30;99.90;;;;;;5015053;28;20034;-69
2022/10/05 01:35:14;;;;;;;28.08;14.40;;;14.40;99.90;;;;;;5014263;28;20486;-69
2022/10/05 01:38:07;;;;;;;26.08;13.73;;;14.40;99.90;;;;;;5014670;28;20029;-69
2022/10/05 01:40:44;;;;;;;35.20;15.63;;;14.40;99.90;;;;;;5014749;28;20073;-67
2022/10/05 01:43:26;;;;;;;30.33;14.73;;;14.40;99.90;;;;;;5014793;28;20029;-67
2022/10/05 01:46:17;;;;;;;34.05;14.98;;;14.40;99.90;;;;;;5014122;28;20026;-67
2022/10/05 01:48:54;;;;;;;31.75;15.52;;;14.40;99.90;;;;;;5014466;28;20021;-67
2022/10/05 01:51:31;;;;;;;27.60;14.80;;;14.40;99.90;;;;;;5014339;28;20064;-69
2022/10/05 01:54:28;;;;;;;28.38;15.57;;;14.40;99.90;;;;;;5014455;28;20527;-69
2022/10/05 01:56:56;;;;;;;34.40;15.32;;;14.40;99.90;;;;;;5014036;28;20033;-69
2022/10/05 01:59:27;;;;;;;30.17;15.40;;;14.40;99.90;;;;;;5014167;28;20092;-67
2022/10/05 02:02:00;;;;;;;37.03;16.75;;;14.40;99.90;;;;;;5014243;28;20018;-67
2022/10/05 02:04:32;;;;;;;34.10;17.08;;;14.30;99.90;;;;;;5014744;28;20061;-67
2022/10/05 02:07:01;;;;;;;27.77;15.23;;;14.40;99.90;;;;;;5014429;28;20033;-67
2022/10/05 02:09:31;;;;;;;29.27;15.93;;;14.30;99.90;;;;;;5013344;28;20101;-67
2022/10/05 02:12:09;;;;;;;28.88;14.75;;;14.30;99.90;;;;;;5014002;28;20038;-67
2022/10/05 02:14:40;;;;;;;28.52;14.38;;;14.30;99.90;;;;;;5014162;28;20053;-67
2022/10/05 02:17:37;;;;;;;40.40;15.20;;;14.30;99.90;;;;;;5014413;28;20030;-67
2022/10/05 02:20:08;;;;;;;36.53;17.08;;;14.30;99.90;;;;;;5005186;28;20080;-67
2022/10/05 02:22:50;;;;;;;31.48;15.38;;;14.30;99.90;;;;;;5013363;28;20068;-67
2022/10/05 02:25:40;;;;;;;39.85;15.25;;;14.20;99.90;;;;;;5013732;28;20022;-68
2022/10/05 02:28:19;;;;;;;28.90;15.23;;;14.30;99.90;;;;;;5008276;28;20033;-69
2022/10/05 02:30:53;;;;;;;36.17;15.48;;;14.30;99.90;;;;;;5012449;28;20371;-69
2022/10/05 02:33:37;;;;;;;31.73;15.43;;;14.30;99.90;;;;;;5013331;28;20101;-69
2022/10/05 02:36:18;;;;;;;29.05;14.85;;;14.20;99.90;;;;;;5013749;28;20029;-69
2022/10/05 02:39:20;;;;;;;33.15;15.40;;;14.20;99.90;;;;;;5014120;28;20033;-69
2022/10/05 02:41:57;;;;;;;37.15;15.45;;;14.20;99.90;;;;;;5006705;28;20038;-69
2022/10/05 02:44:39;;;;;;;32.58;15.48;;;14.20;99.90;;;;;;5013251;28;20105;-69
2022/10/05 02:47:29;;;;;;;34.78;14.25;;;14.10;99.90;;;;;;5013943;28;20026;-67
2022/10/05 02:50:33;;;;;;;36.28;15.63;;;14.10;99.90;;;;;;5013536;28;20030;-67
2022/10/05 02:53:13;;;;;;;30.55;15.90;;;14.10;99.90;;;;;;5013195;28;20061;-68
2022/10/05 02:56:04;;;;;;;27.20;15.30;;;14.10;99.90;;;;;;5013888;28;20516;-68
2022/10/05 02:58:44;;;;;;;33.05;15.95;;;14.10;99.90;;;;;;5013409;28;20029;-68
2022/10/05 03:01:23;;;;;;;36.80;16.33;;;14.10;99.90;;;;;;5013224;28;20026;-68
2022/10/05 03:03:55;;;;;;;35.25;14.80;;;14.10;99.90;;;;;;5013750;28;20018;-68
2022/10/05 03:06:31;;;;;;;38.78;15.75;;;14.10;99.90;;;;;;5013092;28;20478;-68
2022/10/05 03:09:08;;;;;;;32.97;16.08;;;14.10;99.90;;;;;;5013686;28;20104;-68
2022/10/05 03:11:49;;;;;;;37.15;15.32;;;14.10;99.90;;;;;;5068093;22;20068;-70
2022/10/05 03:14:42;;;;;;;38.33;16.63;;;14.10;99.90;;;;;;5053888;28;20029;-70
2022/10/05 03:17:21;;;;;;;38.80;15.63;;;14.10;99.90;;;;;;5037261;28;20025;-70
2022/10/05 03:20:10;;;;;;;28.63;15.23;;;14.10;99.90;;;;;;5033059;28;20076;-70
2022/10/05 03:22:36;;;;;;;33.70;15.35;;;14.20;99.90;;;;;;5028687;28;20041;-70
2022/10/05 03:25:28;;;;;;;33.15;15.80;;;14.20;99.90;;;;;;5032983;28;20021;-70
2022/10/05 03:28:04;;;;;;;37.17;15.88;;;14.20;99.90;;;;;;5033049;28;20048;-69
2022/10/05 03:30:40;;;;;;;32.17;14.45;;;14.30;99.90;;;;;;5034109;28;20385;-70
2022/10/05 03:33:42;;;;;;;40.47;17.23;;;14.30;99.90;;;;;;5036354;28;20022;-70
2022/10/05 03:36:35;;;;;;;34.20;15.63;;;14.30;99.90;;;;;;5036779;28;20025;-69
2022/10/05 03:39:18;;;;;;;29.02;14.35;;;14.30;99.90;;;;;;5036855;28;20112;-69
2022/10/05 03:41:53;;;;;;;36.05;15.85;;;14.30;99.90;;;;;;5036879;28;20017;-69
2022/10/05 03:44:34;;;;;;;31.77;15.75;;;14.30;99.90;;;;;;5036912;28;20485;-69
2022/10/05 03:47:30;;;;;;;38.88;17.73;;;14.20;99.90;;;;;;5036420;28;20588;-70
2022/10/05 03:50:05;;;;;;;30.45;15.73;;;14.20;99.90;;;;;;5036596;28;20021;-70
2022/10/05 03:52:41;;;;;;;39.53;17.23;;;14.20;99.90;;;;;;5036956;28;20480;-70
2022/10/05 03:55:16;;;;;;;33.55;16.38;;;14.10;99.90;;;;;;5036659;28;20420;-70
2022/10/05 03:57:44;;;;;;;41.33;18.52;;;14.10;99.90;;;;;;5036174;28;20021;-70
2022/10/05 04:00:18;;;;;;;36.13;16.52;;;14.10;99.90;;;;;;5036340;28;20025;-70
2022/10/05 04:02:53;;;;;;;;;;;14.10;99.90;;;;;;5037074;28;20025;-70
2022/10/05 04:05:24;;;;;;;29.52;16.05;;;14.00;99.90;;;;;;5036174;28;19905;-70
2022/10/05 04:08:01;;;;;;;37.10;16.40;;;14.00;99.90;;;;;;5035977;28;20033;-70
2022/10/05 04:10:37;;;;;;;29.65;15.40;;;14.00;99.90;;;;;;5034692;28;20029;-69
2022/10/05 04:13:32;;;;;;;35.85;15.40;;;14.00;99.90;;;;;;5036159;28;20152;-70
2022/10/05 04:16:01;;;;;;;38.53;16.13;;;14.00;99.90;;;;;;5036575;28;20022;-70
2022/10/05 04:18:38;;;;;;;33.08;15.05;;;14.00;99.90;;;;;;5035235;28;20473;-70
2022/10/05 04:21:12;;;;;;;35.63;16.95;;;14.00;99.90;;;;;;5035958;28;20040;-70
2022/10/05 04:23:58;;;;;;;32.13;15.38;;;13.90;99.90;;;;;;5036252;28;20124;-70
2022/10/05 04:26:36;;;;;;;34.42;16.27;;;13.90;99.90;;;;;;5035488;28;20045;-70
2022/10/05 04:29:10;;;;;;;29.20;14.65;;;13.90;99.90;;;;;;5036058;28;20416;-70
2022/10/05 04:31:58;;;;;;;30.83;15.80;;;13.90;99.90;;;;;;5035646;28;20060;-70
2022/10/05 04:34:44;;;;;;;32.03;15.52;;;13.90;99.90;;;;;;5035649;28;20481;-70
2022/10/05 04:37:22;;;;;;;26.75;14.32;;;13.90;99.90;;;;;;5035672;28;20495;-70
2022/10/05 04:40:14;;;;;;;23.40;13.82;;;13.90;99.90;;;;;;5035177;28;20025;-70
2022/10/05 04:42:59;;;;;;;39.95;14.73;;;13.90;99.90;;;;;;5018886;28;20108;-70
2022/10/05 04:45:55;;;;;;;37.42;14.30;;;13.90;99.90;;;;;;5035722;28;20124;-70
2022/10/05 04:48:36;;;;;;;39.45;14.65;;;14.00;99.90;;;;;;5034940;28;20029;-70
2022/10/05 04:51:27;;;;;;;32.85;13.98;;;14.00;99.90;;;;;;5035783;28;20377;-70
2022/10/05 04:54:05;;;;;;;24.42;12.80;;;14.00;99.90;;;;;;5035516;28;20045;-70
2022/10/05 04:56:40;;;;;;;32.95;14.48;;;14.00;99.90;;;;;;5035508;28;20056;-70
2022/10/05 04:59:25;;;;;;;29.40;12.35;;;14.00;99.90;;;;;;5033914;28;20022;-70
2022/10/05 05:02:18;;;;;;;33.10;13.95;;;14.00;99.90;;;;;;5034481;28;20049;-70
2022/10/05 05:05:22;;;;;;;27.90;13.38;;;14.00;99.90;;;;;;5035166;28;20068;-70
2022/10/05 05:08:15;;;;;;;20.58;12.68;;;14.00;99.90;;;;;;5014048;28;20037;-70
2022/10/05 05:10:59;;;;;;;37.85;13.18;;;14.10;99.90;;;;;;5033564;28;20037;-70
2022/10/05 05:13:44;;;;;;;28.77;14.02;;;14.10;99.90;;;;;;5035152;28;20052;-70
2022/10/05 05:16:32;;;;;;;24.83;12.43;;;14.10;99.90;;;;;;5034597;28;20033;-70
2022/10/05 05:19:34;;;;;;;26.08;12.52;;;14.10;99.90;;;;;;5035118;28;20017;-70
2022/10/05 05:22:08;;;;;;;25.90;11.70;;;14.20;99.90;;;;;;5034671;28;20354;-70
2022/10/05 05:24:47;;;;;;;21.70;10.75;;;14.20;99.90;;;;;;5034208;28;20051;-70
2022/10/05 05:27:41;;;;;;;24.30;11.70;;;14.20;99.90;;;;;;5034699;28;20084;-70
2022/10/05 05:30:40;;;;;;;27.10;12.43;;;14.20;99.90;;;;;;5034867;28;20026;-70
2022/10/05 05:33:14;;;;;;;23.30;11.70;;;14.20;99.90;;;;;;5034047;28;20030;-70
2022/10/05 05:35:51;;;;;;;24.40;11.60;;;14.30;99.90;;;;;;5034785;28;20025;-70
2022/10/05 05:38:46;;;;;;;29.60;12.90;;;14.20;99.90;;;;;;5034537;28;20060;-70
2022/10/05 05:41:19;;;;;;;25.92;11.55;;;14.20;99.90;;;;;;5034971;28;20039;-70
2022/10/05 05:44:13;;;;;;;23.15;12.02;;;14.20;99.90;;;;;;5035329;28;20024;-70
2022/10/05 05:46:45;;;;;;;25.33;11.88;;;14.20;99.90;;;;;;5018698;28;20026;-70
2022/10/05 05:49:54;;;;;;;23.63;11.13;;;14.20;99.90;;;;;;5014556;28;20063;-70
2022/10/05 05:52:41;;;;;;;18.23;11.10;;;14.20;99.90;;;;;;5014724;28;20100;-70
2022/10/05 05:55:13;;;;;;;24.55;11.77;;;14.20;99.90;;;;;;5014734;28;20046;-70
2022/10/05 05:58:04;;;;;;;34.25;13.00;;;14.20;99.90;;;;;;5026798;28;20021;-70
2022/10/05 06:00:37;;;;;;;24.70;11.32;;;14.20;99.90;;;;;;5034127;28;20025;-70
2022/10/05 06:03:10;;;;;;;22.10;11.55;;;14.30;99.90;;;;;;5034162;28;20037;-70
2022/10/05 06:05:49;;;;;;;28.63;10.97;;;14.20;99.90;;;;;;5034077;28;20420;-70
2022/10/05 06:08:26;;;;;;;21.70;12.07;;;14.30;99.90;;;;;;5033570;28;20045;-70
2022/10/05 06:10:57;;;;;;;34.40;12.55;;;14.30;99.90;;;;;;5033660;28;20562;-70
2022/10/05 06:13:34;;;;;;;21.40;12.38;;;14.30;99.90;;;;;;5034228;28;20029;-70
2022/10/05 06:16:17;;;;;;;22.77;12.27;;;14.30;99.90;;;;;;5033357;28;20025;-70
2022/10/05 06:18:49;;;;;;;26.45;11.88;;;14.30;99.90;;;;;;5033784;28;20021;-70
2022/10/05 06:21:31;;;;;;;22.80;13.05;;;14.30;99.90;;;;;;5033548;28;20066;-70
2022/10/05 06:24:19;;;;;;;23.60;12.25;;;14.30;99.90;;;;;;5033628;28;20577;-70
2022/10/05 06:27:19;;;;;;;16.77;11.20;;;14.40;99.90;;;;;;5033342;28;20031;-70
2022/10/05 06:29:59;;;;;;;23.05;11.20;;;14.30;99.90;;;;;;5033961;28;20017;-70
2022/10/05 06:32:28;;;;;;;26.80;12.63;;;14.30;99.90;;;;;;5033818;28;20397;-70
2022/10/05 06:35:19;;;;;;;25.63;11.95;;;14.30;99.90;;;;;;5032956;28;20049;-70
2022/10/05 06:37:54;;;;;;;38.97;12.32;;;14.30;99.90;;;;;;5033837;28;20366;-69
2022/10/05 06:40:45;;;;;;;21.60;11.30;;;14.30;99.90;;;;;;5033711;28;20470;-69
2022/10/05 06:43:48;;;;;;;20.35;10.60;;;14.40;99.90;;;;;;5033426;28;20036;-69
2022/10/05 06:46:31;;;;;;;19.30;12.25;;;14.40;99.90;;;;;;5032805;28;20022;-70
2022/10/05 06:49:07;;;;;;;22.80;11.23;;;14.30;99.90;;;;;;5033661;28;20037;-69
2022/10/05 06:51:51;;;;;;;23.40;11.05;;;14.30;99.90;;;;;;5033266;28;20033;-69
2022/10/05 06:54:24;;;;;;;;;;;14.30;99.90;;;;;;5033973;28;20025;-69
2022/10/05 06:56:56;;;;;;;20.95;10.95;;;14.40;99.90;;;;;;5033874;28;19912;-69
2022/10/05 06:59:33;;;;;;;27.00;12.18;;;14.40;99.90;;;;;;5033434;28;20469;-69
2022/10/05 07:02:19;;;;;;;20.73;10.52;;;14.50;99.90;;;;;;5033269;28;20044;-69
2022/10/05 07:05:06;;;;;;;32.28;10.82;;;14.50;99.90;;;;;;5032911;28;20017;-69
2022/10/05 07:07:46;;;;;;;25.17;11.13;;;14.50;99.90;;;;;;5037444;28;20021;-69
2022/10/05 07:10:29;;;;;;;21.17;10.98;;;14.50;99.90;;;;;;5037225;28;20028;-69
2022/10/05 07:13:24;;;;;;;23.13;11.68;;;14.50;99.90;;;;;;5037080;28;20441;-69
2022/10/05 07:15:58;;;;;;;22.83;11.50;;;14.50;99.90;;;;;;5037097;28;20048;-69
2022/10/05 07:18:57;;;;;;;27.48;11.10;;;14.50;99.90;;;;;;5036602;28;20121;-69
2022/10/05 07:21:29;;;;;;;26.15;12.05;;;14.60;99.90;;;;;;5036816;28;20032;-70
2022/10/05 07:24:18;;;;;;;21.23;11.60;;;14.60;99.90;;;;;;5037355;28;20018;-70
2022/10/05 07:27:01;;;;;;;18.27;10.77;;;14.50;99.90;;;;;;5037209;28;20024;-70
2022/10/05 07:29:55;;;;;;;24.13;11.85;;;14.60;99.90;;;;;;5036364;28;20021;-70
2022/10/05 07:32:34;;;;;;;29.35;11.65;;;14.50;99.90;;;;;;5036748;28;20056;-70
2022/10/05 07:38:25;;;;;;;28.92;13.95;;;14.50;99.90;;;;;;5037385;28;20492;-70
2022/10/05 07:40:55;;;;;;;26.70;13.23;;;14.50;99.90;;;;;;5036705;28;20037;-70
2022/10/05 07:43:40;;;;;;;20.33;11.52;;;14.60;99.90;;;;;;5036193;28;20124;-70
2022/10/05 07:46:06;;;;;;;27.50;12.45;;;14.70;99.90;;;;;;5035219;28;20436;-70
2022/10/05 07:48:59;;;;;;;28.10;12.00;;;14.70;99.90;;;;;;5036751;28;20033;-70
2022/10/05 07:51:31;;;;;;;21.45;12.15;;;14.70;99.90;;;;;;5031491;28;20045;-70
2022/10/05 07:54:11;;;;;;;30.15;11.10;;;14.80;99.90;;;;;;5036602;28;20025;-70
2022/10/05 07:57:00;;;;;;;29.60;12.80;;;14.70;99.90;;;;;;5036492;28;20028;-70
2022/10/05 07:59:34;;;;;;;22.10;11.30;;;14.70;99.90;;;;;;5035984;28;20076;-69
2022/10/05 08:02:28;;;;;;;20.08;11.93;;;14.80;99.90;;;;;;5036360;28;20053;-69
2022/10/05 08:05:08;;;;;;;;;;;14.80;99.90;;;;;;5016949;28;20037;-69
2022/10/05 08:07:34;;;;;;;25.40;11.48;;;14.80;99.90;;;;;;5036879;28;19905;-69
2022/10/05 08:10:26;;;;;;;24.13;13.48;;;14.90;99.90;;;;;;5036818;28;20021;-69
2022/10/05 08:13:14;;;;;;;24.60;12.95;;;14.90;99.90;;;;;;5036468;28;20029;-69
2022/10/05 08:15:41;;;;;;;28.48;12.82;;;14.90;99.90;;;;;;5036396;28;20079;-69
2022/10/05 08:18:20;;;;;;;27.02;12.20;;;14.80;99.90;;;;;;5016702;28;20359;-69
2022/10/05 08:20:55;;;;;;;24.42;12.63;;;14.80;99.90;;;;;;5015407;28;20113;-69
2022/10/05 08:23:24;;;;;;;29.17;12.55;;;14.80;99.90;;;;;;5016163;28;20025;-69
2022/10/05 08:26:23;;;;;;;28.10;12.77;;;14.80;99.90;;;;;;5016350;28;20026;-69
2022/10/05 08:28:59;;;;;;;26.60;12.45;;;14.80;99.90;;;;;;5016375;28;20029;-69
2022/10/05 08:31:36;;;;;;;26.73;12.10;;;14.90;99.90;;;;;;5015563;28;20030;-69
2022/10/05 08:34:26;;;;;;;27.88;11.55;;;14.90;99.90;;;;;;5032255;28;20091;-69
2022/10/05 08:37:20;;;;;;;24.58;13.88;;;15.00;99.90;;;;;;5036183;28;20029;-69
2022/10/05 08:40:21;;;;;;;21.95;10.82;;;15.00;99.90;;;;;;5035776;28;20378;-69
2022/10/05 08:42:58;;;;;;;24.20;12.52;;;15.20;99.90;;;;;;5018429;28;20061;-69
2022/10/05 08:45:43;;;;;;;25.25;12.10;;;15.20;99.90;;;;;;5035447;28;20108;-69
2022/10/05 08:48:46;;;;;;;22.38;11.20;;;15.20;99.90;;;;;;5035463;28;20080;-69
2022/10/05 08:51:11;;;;;;;31.75;13.50;;;15.30;99.90;;;;;;5035298;28;20101;-69
2022/10/05 08:54:07;;;;;;;30.08;11.63;;;15.30;99.90;;;;;;5034740;28;20112;-69
2022/10/05 08:56:41;;;;;;;29.63;12.30;;;15.30;99.90;;;;;;5035352;28;20021;-69
2022/10/05 08:59:12;;;;;;;21.33;11.85;;;15.30;99.90;;;;;;5035562;28;20100;-69
2022/10/05 09:02:10;;;;;;;21.20;11.05;;;15.40;99.90;;;;;;5035146;28;20079;-69
2022/10/05 09:04:50;;;;;;;19.30;11.25;;;15.40;99.90;;;;;;5035354;28;20028;-69
2022/10/05 09:07:41;;;;;;;26.50;12.35;;;15.50;99.90;;;;;;5034433;28;20022;-69
2022/10/05 09:10:13;;;;;;;23.42;12.05;;;15.50;99.90;;;;;;5034895;28;20483;-69
2022/10/05 09:12:57;;;;;;;22.88;12.60;;;15.50;99.90;;;;;;5035494;28;20037;-71
2022/10/05 09:15:57;;;;;;;27.58;11.52;;;15.40;99.90;;;;;;5034389;28;20025;-71
2022/10/05 09:18:53;;;;;;;21.10;11.15;;;15.40;99.90;;;;;;5035209;28;20029;-71
2022/10/05 09:21:40;;;;;;;24.63;12.18;;;15.50;99.90;;;;;;5034830;28;20493;-71
2022/10/05 09:24:12;;;;;;;26.02;11.82;;;15.50;99.90;;;;;;5034188;28;20022;-71
2022/10/05 09:26:42;;;;;;;22.77;11.38;;;15.60;99.90;;;;;;5034616;28;20029;-71
2022/10/05 09:29:43;;;;;;;19.80;12.05;;;15.60;99.90;;;;;;5034362;28;20021;-71
2022/10/05 09:32:22;;;;;;;21.50;12.70;;;15.50;99.90;;;;;;5034678;28;20030;-71
2022/10/05 09:35:18;;;;;;;20.98;12.32;;;15.60;99.90;;;;;;5034869;28;20018;-71
2022/10/05 09:37:56;;;;;;;19.45;13.30;;;15.50;99.90;;;;;;5034283;28;20032;-71
2022/10/05 09:40:46;;;;;;;26.65;12.32;;;15.50;99.90;;;;;;5034388;28;20100;-71
2022/10/05 09:43:49;;;;;;;28.73;12.45;;;15.50;99.90;;;;;;5034524;28;20033;-71
2022/10/05 09:46:40;;;;;;;22.38;12.90;;;15.50;99.90;;;;;;5033929;28;20489;-71
2022/10/05 09:49:31;;;;;;;28.90;12.70;;;15.60;99.90;;;;;;5010269;28;20029;-71
2022/10/05 09:52:15;;;;;;;22.92;12.65;;;15.50;99.90;;;;;;5034237;28;20167;-71
2022/10/05 09:55:01;;;;;;;27.95;14.18;;;15.50;99.90;;;;;;5033953;28;20025;-71
2022/10/05 09:57:30;;;;;;;26.48;12.88;;;15.40;99.90;;;;;;5034219;28;20442;-71
2022/10/05 10:00:14;;;;;;;25.75;12.95;;;15.40;99.90;;;;;;5034168;28;20018;-70
2022/10/05 10:03:08;;;;;;;27.95;13.90;;;15.40;99.90;;;;;;5033561;28;20389;-70
2022/10/05 10:05:57;;;;;;;21.98;12.45;;;15.50;99.90;;;;;;5034599;28;20021;-71
2022/10/05 10:08:37;;;;;;;24.17;13.93;;;15.50;99.90;;;;;;5014693;28;20112;-71
2022/10/05 10:11:08;;;;;;;34.22;14.07;;;15.60;99.90;;;;;;5034091;28;20033;-71
2022/10/05 10:13:54;;;;;;;27.58;14.60;;;15.70;99.90;;;;;;5033982;28;20106;-71
2022/10/05 10:16:33;;;;;;;24.42;12.93;;;15.50;99.90;;;;;;5034080;28;20021;-71
2022/10/05 10:19:14;;;;;;;23.92;13.68;;;15.50;99.90;;;;;;5011780;28;20029;-70
2022/10/05 10:21:45;;;;;;;24.17;12.52;;;15.60;99.90;;;;;;5013590;28;20110;-71
2022/10/05 10:24:23;;;;;;;21.38;12.32;;;15.60;99.90;;;;;;5017179;28;20029;-71
2022/10/05 10:27:02;;;;;;;21.20;12.57;;;15.60;99.90;;;;;;5015985;28;20037;-71
2022/10/05 10:29:50;;;;;;;19.55;12.52;;;15.60;99.90;;;;;;5017279;28;20037;-70
2022/10/05 10:32:49;;;;;;;33.80;14.07;;;15.70;99.90;;;;;;5009287;28;20397;-71
2022/10/05 10:35:30;;;;;;;33.75;13.68;;;15.60;99.90;;;;;;5018671;28;20110;-72
2022/10/05 10:38:07;;;;;;;20.40;12.10;;;15.70;99.90;;;;;;5015818;28;20646;-70
2022/10/05 10:40:54;;;;;;;25.92;11.55;;;15.70;99.90;;;;;;5013899;28;20128;-71
2022/10/05 10:43:39;;;;;;;14.88;10.38;;;15.60;99.90;;;;;;5014616;28;20037;-71
2022/10/05 10:46:26;;;;;;;21.92;10.88;;;15.60;99.90;;;;;;5019948;28;20389;-71
2022/10/05 10:49:33;;;;;;;19.77;11.43;;;15.60;99.90;;;;;;5014212;28;20030;-71
2022/10/05 10:52:17;;;;;;;17.45;10.15;;;15.70;99.90;;;;;;4994141;28;20476;-70
2022/10/05 10:55:19;;;;;;;19.05;9.63;;;15.70;99.90;;;;;;5015869;28;20384;-70
2022/10/05 10:57:56;;;;;;;17.17;9.60;;;15.80;99.90;;;;;;5013498;28;20022;-70
2022/10/05 11:00:46;;;;;;;14.88;9.60;;;15.80;99.90;;;;;;5013120;28;20021;-71
2022/10/05 11:03:39;;;;;;;15.18;9.52;;;15.80;99.90;;;;;;5022653;28;20034;-70
2022/10/05 11:06:31;;;;;;;20.45;9.65;;;15.90;99.90;;;;;;5028209;28;20083;-70
2022/10/05 11:08:57;;;;;;;15.35;9.05;;;15.90;99.90;;;;;;5017101;28;20072;-70
2022/10/05 11:11:49;;;;;;;15.00;8.82;;;15.90;99.90;;;;;;5029348;28;20041;-70
2022/10/05 11:14:28;;;;;;;21.30;8.77;;;15.80;99.90;;;;;;5033249;28;20022;-70
2022/10/05 11:17:07;;;;;;;18.90;8.75;;;15.90;99.90;;;;;;5014177;28;20029;-70
2022/10/05 11:19:58;;;;;;;16.35;8.00;;;15.90;99.90;;;;;;5012443;28;20529;-70
2022/10/05 11:23:08;;;;;;;19.15;7.95;;;16.00;99.90;;;;;;5017539;28;20508;-70
2022/10/05 11:26:06;;;;;;;16.63;8.07;;;16.10;99.90;;;;;;5028278;28;20021;-70
2022/10/05 11:28:47;;;;;;;11.70;7.97;;;16.10;99.90;;;;;;5033283;28;20480;-70
2022/10/05 11:31:31;;;;;;;14.43;7.10;;;16.10;99.90;;;;;;5033133;28;20071;-70
2022/10/05 11:34:28;;;;;;;11.18;7.28;;;16.20;99.90;;;;;;5033157;28;20022;-70
2022/10/05 11:36:54;;;;;;;13.75;7.63;;;16.20;99.90;;;;;;5033382;28;20442;-70
2022/10/05 11:39:57;;;;;;;15.07;7.43;;;16.20;99.90;;;;;;5032531;28;20097;-70
2022/10/05 11:43:09;;;;;;;13.60;7.93;;;16.20;99.90;;;;;;5032962;28;20033;-70
2022/10/05 11:45:35;;;;;;;12.13;7.20;;;16.20;99.90;;;;;;5032554;28;20025;-70
2022/10/05 11:48:35;;;;;;;15.02;8.00;;;16.10;99.90;;;;;;5033017;28;20029;-70
2022/10/05 11:51:35;;;;;;;21.48;9.00;;;16.10;99.90;;;;;;5033557;28;20022;-70
2022/10/05 11:54:30;;;;;;;14.55;7.57;;;16.20;99.90;;;;;;4985674;28;20393;-70
2022/10/05 11:57:22;;;;;;;15.52;7.32;;;16.30;99.90;;;;;;5036513;28;20025;-70
2022/10/05 12:00:01;;;;;;;12.32;7.63;;;16.40;99.90;;;;;;5036216;28;20071;-70
2022/10/05 12:02:30;;;;;;;9.45;6.45;;;16.30;99.90;;;;;;5036703;28;20021;-71
2022/10/05 12:05:20;;;;;;;15.80;6.88;;;16.40;99.90;;;;;;5036524;28;20483;-71
2022/10/05 12:07:48;;;;;;;16.25;6.82;;;16.30;99.90;;;;;;5036693;28;20021;-71
2022/10/05 12:10:40;;;;;;;9.63;5.55;;;16.30;99.90;;;;;;5035511;28;20159;-71
2022/10/05 12:13:51;;;;;;;10.38;7.00;;;16.20;99.90;;;;;;5036436;28;20108;-71
2022/10/05 12:16:31;;;;;;;13.55;6.72;;;16.20;99.90;;;;;;4975045;28;20118;-71
2022/10/05 12:19:13;;;;;;;12.35;7.22;;;16.10;99.90;;;;;;4975606;28;20541;-71
2022/10/05 12:21:47;;;;;;;13.05;7.25;;;16.20;99.90;;;;;;5018249;28;20033;-70
2022/10/05 12:24:34;;;;;;;14.43;6.45;;;16.10;99.90;;;;;;5016344;28;20022;-71
2022/10/05 12:27:25;;;;;;;12.50;6.57;;;16.10;99.90;;;;;;5015994;28;20068;-70
2022/10/05 12:30:13;;;;;;;13.15;6.75;;;16.10;99.90;;;;;;5013645;28;20125;-71
2022/10/05 12:32:57;;;;;;;16.15;6.25;;;16.00;99.90;;;;;;5016384;28;20030;-71
2022/10/05 12:35:41;;;;;;;14.15;6.15;;;16.10;99.90;;;;;;5015742;28;20040;-70
2022/10/05 12:38:23;;;;;;;9.82;6.28;;;16.00;99.90;;;;;;5018687;28;20026;-70
2022/10/05 12:41:03;;;;;;;10.07;5.72;;;16.00;99.90;;;;;;5035687;28;20030;-71
2022/10/05 12:43:36;;;;;;;16.10;6.53;;;16.10;99.90;;;;;;5036193;28;20416;-71
2022/10/05 12:46:24;;;;;;;;;;;16.00;99.90;;;;;;5035768;28;20072;-71
2022/10/05 12:49:13;;;;;;;10.35;5.70;;;15.90;99.90;;;;;;5035933;28;19905;-71
2022/10/05 12:51:59;;;;;;;15.88;7.70;;;15.90;99.90;;;;;;5035475;28;20105;-70
2022/10/05 12:54:43;;;;;;;12.77;6.50;;;15.90;99.90;;;;;;5035451;28;20478;-71
2022/10/05 12:57:24;;;;;;;17.27;7.22;;;15.90;99.90;;;;;;5035791;28;20025;-71
2022/10/05 12:59:58;;;;;;;11.20;6.93;;;15.90;99.90;;;;;;5035383;28;20048;-71
2022/10/05 13:02:32;;;;;;;;;;;15.90;99.90;;;;;;5036531;28;20144;-71
2022/10/05 13:05:00;;;;;;;;;;;15.90;99.90;;;;;;5036014;28;19905;-71
2022/10/05 13:07:26;;;;;;;12.85;7.25;;;15.90;99.90;;;;;;5035484;28;19988;-71
2022/10/05 13:10:29;;;;;;;14.77;6.95;;;16.00;99.90;;;;;;5035599;28;20100;-72
2022/10/05 13:13:05;;;;;;;12.77;6.82;;;15.90;99.90;;;;;;5001413;28;20049;-71
2022/10/05 13:16:09;;;;;;;9.40;5.78;;;15.90;99.90;;;;;;5035720;28;20045;-70
2022/10/05 13:18:53;;;;;;;10.07;5.88;;;15.80;99.90;;;;;;5012251;28;20026;-71
2022/10/05 13:21:55;;;;;;;8.77;6.05;;;15.90;99.90;;;;;;5035073;28;20030;-70
2022/10/05 13:24:35;;;;;;;11.82;5.50;;;15.80;99.90;;;;;;5034960;28;20033;-70
2022/10/05 13:27:12;;;;;;;11.18;6.60;;;15.80;99.90;;;;;;5035006;28;20075;-70
2022/10/05 13:29:57;;;;;;;16.55;5.93;;;15.80;99.90;;;;;;5034779;28;20045;-71
2022/10/05 13:32:25;;;;;;;10.65;6.03;;;15.80;99.90;;;;;;5034264;28;20493;-70
2022/10/05 13:34:51;;;;;;;13.30;5.35;;;15.80;99.90;;;;;;5034932;28;20060;-71
2022/10/05 13:37:30;;;;;;;15.35;6.05;;;15.70;99.90;;;;;;5034787;28;20017;-70
2022/10/05 13:40:20;;;;;;;12.05;5.90;;;15.70;99.90;;;;;;5034934;28;20053;-70
2022/10/05 13:42:58;;;;;;;11.65;5.03;;;15.70;99.90;;;;;;5003403;28;20037;-70
2022/10/05 13:45:28;;;;;;;12.05;5.15;;;15.70;99.90;;;;;;5035010;28;20025;-70
2022/10/05 13:48:00;;;;;;;10.02;4.50;;;15.60;99.90;;;;;;5034993;28;20025;-71
2022/10/05 13:50:28;;;;;;;8.73;4.55;;;15.60;99.90;;;;;;5034279;28;20025;-70
2022/10/05 13:53:20;;;;;;;8.30;4.50;;;15.60;99.90;;;;;;5034865;28;20021;-70